sensor_id;sensor_type;location;lat;lon;timestamp;P1;durP1;ratioP1;P2;durP2;ratioP2
43327;SDS011;28923;45.412;10.852;2023-12-07T05:02:45;1.10;;;0.90;;
43327;SDS011;28923;45.412;10.852;2023-12-07T05:05:11;1.15;;;1.05;;
43327;SDS011;28923;45.412;10.852;2023-12-07T05:07:36;1.48;;;1.30;;
43327;SDS011;28923;45.412;10.852;2023-12-07T05:10:02;1.17;;;1.08;;
43327;SDS011;28923;45.412;10.852;2023-12-07T05:12:28;1.95;;;1.20;;
43327;SDS011;28923;45.412;10.852;2023-12-07T05:14:53;1.15;;;1.05;;
43327;SDS011;28923;45.412;10.852;2023-12-07T05:17:18;0.90;;;0.90;;
43327;SDS011;28923;45.412;10.852;2023-12-07T05:19:44;1.15;;;0.93;;
43327;SDS011;28923;45.412;10.852;2023-12-07T05:22:10;1.27;;;1.17;;
43327;SDS011;28923;45.412;10.852;2023-12-07T05:24:35;0.88;;;0.85;;
43327;SDS011;28923;45.412;10.852;2023-12-07T05:27:01;1.25;;;0.98;;
43327;SDS011;28923;45.412;10.852;2023-12-07T05:29:26;1.15;;;1.08;;
43327;SDS011;28923;45.412;10.852;2023-12-07T05:31:51;2.25;;;0.90;;
43327;SDS011;28923;45.412;10.852;2023-12-07T05:34:17;1.02;;;0.82;;
43327;SDS011;28923;45.412;10.852;2023-12-07T05:36:43;1.80;;;0.95;;
43327;SDS011;28923;45.412;10.852;2023-12-07T05:39:08;1.33;;;1.15;;
43327;SDS011;28923;45.412;10.852;2023-12-07T05:41:34;1.35;;;1.10;;
43327;SDS011;28923;45.412;10.852;2023-12-07T05:43:59;1.35;;;1.20;;
43327;SDS011;28923;45.412;10.852;2023-12-07T05:46:25;1.27;;;1.17;;
43327;SDS011;28923;45.412;10.852;2023-12-07T05:48:50;1.38;;;1.20;;
43327;SDS011;28923;45.412;10.852;2023-12-07T05:51:16;1.10;;;1.00;;
43327;SDS011;28923;45.412;10.852;2023-12-07T05:53:41;1.33;;;1.23;;
43327;SDS011;28923;45.412;10.852;2023-12-07T05:56:07;1.17;;;1.00;;
43327;SDS011;28923;45.412;10.852;2023-12-07T05:58:33;1.00;;;1.00;;
43327;SDS011;28923;45.412;10.852;2023-12-07T06:00:59;1.98;;;1.02;;
43327;SDS011;28923;45.412;10.852;2023-12-07T06:03:25;1.60;;;0.90;;
43327;SDS011;28923;45.412;10.852;2023-12-07T06:05:51;1.17;;;1.05;;
43327;SDS011;28923;45.412;10.852;2023-12-07T06:08:16;1.75;;;1.35;;
43327;SDS011;28923;45.412;10.852;2023-12-07T06:10:42;1.25;;;0.95;;
43327;SDS011;28923;45.412;10.852;2023-12-07T06:13:07;1.20;;;1.00;;
43327;SDS011;28923;45.412;10.852;2023-12-07T06:15:33;1.70;;;1.08;;
43327;SDS011;28923;45.412;10.852;2023-12-07T06:17:58;1.88;;;1.00;;
43327;SDS011;28923;45.412;10.852;2023-12-07T06:20:24;1.02;;;0.98;;
43327;SDS011;28923;45.412;10.852;2023-12-07T06:22:49;0.90;;;0.90;;
43327;SDS011;28923;45.412;10.852;2023-12-07T06:25:14;1.50;;;1.00;;
43327;SDS011;28923;45.412;10.852;2023-12-07T06:27:41;3.72;;;1.15;;
43327;SDS011;28923;45.412;10.852;2023-12-07T06:30:07;3.25;;;1.27;;
43327;SDS011;28923;45.412;10.852;2023-12-07T06:32:32;7.25;;;1.45;;
43327;SDS011;28923;45.412;10.852;2023-12-07T06:34:58;3.40;;;1.60;;
43327;SDS011;28923;45.412;10.852;2023-12-07T06:37:23;1.63;;;1.08;;
43327;SDS011;28923;45.412;10.852;2023-12-07T06:39:49;3.78;;;1.40;;
43327;SDS011;28923;45.412;10.852;2023-12-07T06:42:14;2.22;;;1.20;;
43327;SDS011;28923;45.412;10.852;2023-12-07T06:44:40;2.13;;;1.60;;
43327;SDS011;28923;45.412;10.852;2023-12-07T06:47:05;3.15;;;1.77;;
43327;SDS011;28923;45.412;10.852;2023-12-07T06:49:31;2.15;;;1.70;;
43327;SDS011;28923;45.412;10.852;2023-12-07T06:51:56;4.50;;;1.38;;
43327;SDS011;28923;45.412;10.852;2023-12-07T06:54:22;4.93;;;1.90;;
43327;SDS011;28923;45.412;10.852;2023-12-07T06:56:47;3.70;;;1.55;;
43327;SDS011;28923;45.412;10.852;2023-12-07T06:59:13;5.82;;;1.65;;
43327;SDS011;28923;45.412;10.852;2023-12-07T07:01:39;1.90;;;1.40;;
43327;SDS011;28923;45.412;10.852;2023-12-07T07:04:04;2.28;;;1.33;;
43327;SDS011;28923;45.412;10.852;2023-12-07T07:06:30;5.20;;;1.40;;
43327;SDS011;28923;45.412;10.852;2023-12-07T07:08:55;5.00;;;1.58;;
43327;SDS011;28923;45.412;10.852;2023-12-07T07:11:21;3.83;;;1.50;;
43327;SDS011;28923;45.412;10.852;2023-12-07T07:13:46;3.53;;;1.45;;
43327;SDS011;28923;45.412;10.852;2023-12-07T07:16:11;3.10;;;1.42;;
43327;SDS011;28923;45.412;10.852;2023-12-07T07:18:37;4.35;;;1.80;;
43327;SDS011;28923;45.412;10.852;2023-12-07T07:21:03;5.28;;;1.67;;
43327;SDS011;28923;45.412;10.852;2023-12-07T07:23:29;8.02;;;1.88;;
43327;SDS011;28923;45.412;10.852;2023-12-07T07:25:55;7.38;;;1.67;;
43327;SDS011;28923;45.412;10.852;2023-12-07T07:28:20;4.47;;;1.88;;
43327;SDS011;28923;45.412;10.852;2023-12-07T07:30:45;2.00;;;1.42;;
43327;SDS011;28923;45.412;10.852;2023-12-07T07:33:11;4.05;;;1.95;;
43327;SDS011;28923;45.412;10.852;2023-12-07T07:35:36;5.55;;;1.80;;
43327;SDS011;28923;45.412;10.852;2023-12-07T07:38:01;3.30;;;1.73;;
43327;SDS011;28923;45.412;10.852;2023-12-07T07:40:27;5.05;;;1.75;;
43327;SDS011;28923;45.412;10.852;2023-12-07T07:42:52;3.80;;;1.50;;
43327;SDS011;28923;45.412;10.852;2023-12-07T07:45:18;3.65;;;1.70;;
43327;SDS011;28923;45.412;10.852;2023-12-07T07:47:44;4.60;;;2.08;;
43327;SDS011;28923;45.412;10.852;2023-12-07T07:50:09;4.55;;;1.52;;
43327;SDS011;28923;45.412;10.852;2023-12-07T07:52:35;3.53;;;1.67;;
43327;SDS011;28923;45.412;10.852;2023-12-07T07:55:02;8.45;;;1.90;;
43327;SDS011;28923;45.412;10.852;2023-12-07T07:57:28;4.25;;;1.63;;
43327;SDS011;28923;45.412;10.852;2023-12-07T07:59:53;4.32;;;1.92;;
43327;SDS011;28923;45.412;10.852;2023-12-07T08:02:19;2.80;;;1.60;;
43327;SDS011;28923;45.412;10.852;2023-12-07T08:04:46;1.75;;;1.35;;
43327;SDS011;28923;45.412;10.852;2023-12-07T08:07:11;2.58;;;1.65;;
43327;SDS011;28923;45.412;10.852;2023-12-07T08:09:37;3.00;;;1.70;;
43327;SDS011;28923;45.412;10.852;2023-12-07T08:12:02;4.78;;;1.58;;
43327;SDS011;28923;45.412;10.852;2023-12-07T08:14:27;7.28;;;1.70;;
43327;SDS011;28923;45.412;10.852;2023-12-07T08:16:53;4.63;;;1.63;;
43327;SDS011;28923;45.412;10.852;2023-12-07T08:19:18;5.70;;;1.73;;
43327;SDS011;28923;45.412;10.852;2023-12-07T08:21:44;4.72;;;1.50;;
43327;SDS011;28923;45.412;10.852;2023-12-07T08:24:09;2.67;;;1.70;;
43327;SDS011;28923;45.412;10.852;2023-12-07T08:26:36;9.10;;;2.00;;
43327;SDS011;28923;45.412;10.852;2023-12-07T08:29:01;6.75;;;1.75;;
43327;SDS011;28923;45.412;10.852;2023-12-07T08:31:27;4.40;;;1.58;;
43327;SDS011;28923;45.412;10.852;2023-12-07T08:33:52;4.97;;;1.60;;
43327;SDS011;28923;45.412;10.852;2023-12-07T08:36:17;3.83;;;1.60;;
43327;SDS011;28923;45.412;10.852;2023-12-07T08:41:35;4.63;;;1.73;;
43327;SDS011;28923;45.412;10.852;2023-12-07T08:44:00;3.50;;;2.05;;
43327;SDS011;28923;45.412;10.852;2023-12-07T08:46:26;2.20;;;1.63;;
43327;SDS011;28923;45.412;10.852;2023-12-07T08:48:51;3.65;;;1.70;;
43327;SDS011;28923;45.412;10.852;2023-12-07T08:51:17;1.90;;;1.55;;
43327;SDS011;28923;45.412;10.852;2023-12-07T08:53:43;4.03;;;1.70;;
43327;SDS011;28923;45.412;10.852;2023-12-07T08:56:08;1.95;;;1.48;;
43327;SDS011;28923;45.412;10.852;2023-12-07T08:58:34;2.33;;;1.70;;
43327;SDS011;28923;45.412;10.852;2023-12-07T09:00:59;2.20;;;1.73;;
43327;SDS011;28923;45.412;10.852;2023-12-07T09:03:24;3.30;;;1.75;;
43327;SDS011;28923;45.412;10.852;2023-12-07T09:05:56;2.40;;;1.80;;
43327;SDS011;28923;45.412;10.852;2023-12-07T09:08:22;3.75;;;1.83;;
43327;SDS011;28923;45.412;10.852;2023-12-07T09:10:47;2.50;;;1.85;;
43327;SDS011;28923;45.412;10.852;2023-12-07T09:13:15;3.05;;;1.88;;
43327;SDS011;28923;45.412;10.852;2023-12-07T09:15:40;2.97;;;1.80;;
43327;SDS011;28923;45.412;10.852;2023-12-07T09:18:05;2.38;;;1.90;;
43327;SDS011;28923;45.412;10.852;2023-12-07T09:20:31;2.72;;;1.90;;
43327;SDS011;28923;45.412;10.852;2023-12-07T09:22:56;2.95;;;1.60;;
43327;SDS011;28923;45.412;10.852;2023-12-07T09:25:22;2.88;;;1.80;;
43327;SDS011;28923;45.412;10.852;2023-12-07T09:27:47;3.42;;;1.88;;
43327;SDS011;28923;45.412;10.852;2023-12-07T09:30:13;5.07;;;1.77;;
43327;SDS011;28923;45.412;10.852;2023-12-07T09:32:42;2.72;;;1.70;;
43327;SDS011;28923;45.412;10.852;2023-12-07T09:35:08;1.98;;;1.63;;
43327;SDS011;28923;45.412;10.852;2023-12-07T09:37:38;5.78;;;1.90;;
43327;SDS011;28923;45.412;10.852;2023-12-07T09:40:03;2.70;;;1.90;;
43327;SDS011;28923;45.412;10.852;2023-12-07T09:42:30;6.28;;;1.90;;
43327;SDS011;28923;45.412;10.852;2023-12-07T09:44:56;2.25;;;1.95;;
43327;SDS011;28923;45.412;10.852;2023-12-07T09:47:22;3.05;;;1.95;;
43327;SDS011;28923;45.412;10.852;2023-12-07T09:49:47;2.38;;;1.90;;
43327;SDS011;28923;45.412;10.852;2023-12-07T09:52:12;2.00;;;1.80;;
43327;SDS011;28923;45.412;10.852;2023-12-07T09:54:42;3.33;;;1.60;;
43327;SDS011;28923;45.412;10.852;2023-12-07T09:57:07;2.30;;;1.60;;
43327;SDS011;28923;45.412;10.852;2023-12-07T09:59:37;2.78;;;1.92;;
43327;SDS011;28923;45.412;10.852;2023-12-07T10:02:02;2.00;;;1.80;;
43327;SDS011;28923;45.412;10.852;2023-12-07T10:04:28;4.30;;;1.63;;
43327;SDS011;28923;45.412;10.852;2023-12-07T10:06:53;2.20;;;1.90;;
43327;SDS011;28923;45.412;10.852;2023-12-07T10:09:19;2.42;;;2.10;;
43327;SDS011;28923;45.412;10.852;2023-12-07T10:11:46;3.95;;;2.03;;
43327;SDS011;28923;45.412;10.852;2023-12-07T10:14:12;2.33;;;1.92;;
43327;SDS011;28923;45.412;10.852;2023-12-07T10:16:37;2.15;;;1.80;;
43327;SDS011;28923;45.412;10.852;2023-12-07T10:19:21;2.08;;;1.80;;
43327;SDS011;28923;45.412;10.852;2023-12-07T10:21:53;3.33;;;2.00;;
43327;SDS011;28923;45.412;10.852;2023-12-07T10:24:19;2.67;;;1.85;;
43327;SDS011;28923;45.412;10.852;2023-12-07T10:26:45;1.77;;;1.63;;
43327;SDS011;28923;45.412;10.852;2023-12-07T10:29:11;2.70;;;1.80;;
43327;SDS011;28923;45.412;10.852;2023-12-07T10:31:37;2.28;;;1.60;;
43327;SDS011;28923;45.412;10.852;2023-12-07T10:34:02;2.50;;;1.90;;
43327;SDS011;28923;45.412;10.852;2023-12-07T10:36:29;2.30;;;2.10;;
43327;SDS011;28923;45.412;10.852;2023-12-07T10:38:54;3.35;;;1.88;;
43327;SDS011;28923;45.412;10.852;2023-12-07T10:41:20;2.45;;;1.70;;
43327;SDS011;28923;45.412;10.852;2023-12-07T10:43:48;5.05;;;2.05;;
43327;SDS011;28923;45.412;10.852;2023-12-07T10:46:14;2.75;;;2.00;;
43327;SDS011;28923;45.412;10.852;2023-12-07T10:48:41;2.25;;;1.90;;
43327;SDS011;28923;45.412;10.852;2023-12-07T10:51:09;3.75;;;2.38;;
43327;SDS011;28923;45.412;10.852;2023-12-07T10:53:37;2.80;;;2.17;;
43327;SDS011;28923;45.412;10.852;2023-12-07T10:56:06;4.78;;;1.92;;
43327;SDS011;28923;45.412;10.852;2023-12-07T10:58:33;2.55;;;1.95;;
43327;SDS011;28923;45.412;10.852;2023-12-07T11:01:00;3.45;;;2.10;;
43327;SDS011;28923;45.412;10.852;2023-12-07T11:03:27;3.53;;;2.20;;
43327;SDS011;28923;45.412;10.852;2023-12-07T11:05:57;3.00;;;1.98;;
43327;SDS011;28923;45.412;10.852;2023-12-07T11:13:36;2.45;;;1.80;;
43327;SDS011;28923;45.412;10.852;2023-12-07T11:16:02;2.60;;;2.10;;
43327;SDS011;28923;45.412;10.852;2023-12-07T11:18:28;3.35;;;2.00;;
43327;SDS011;28923;45.412;10.852;2023-12-07T11:20:57;3.30;;;2.10;;
43327;SDS011;28923;45.412;10.852;2023-12-07T11:26:04;2.40;;;1.90;;
43327;SDS011;28923;45.412;10.852;2023-12-07T11:28:38;3.05;;;1.95;;
43327;SDS011;28923;45.412;10.852;2023-12-07T11:31:05;3.30;;;2.15;;
43327;SDS011;28923;45.412;10.852;2023-12-07T11:33:31;3.92;;;2.40;;
43327;SDS011;28923;45.412;10.852;2023-12-07T11:36:03;3.13;;;2.13;;
43327;SDS011;28923;45.412;10.852;2023-12-07T11:38:28;3.55;;;2.10;;
43327;SDS011;28923;45.412;10.852;2023-12-07T11:40:54;3.95;;;2.30;;
43327;SDS011;28923;45.412;10.852;2023-12-07T11:45:56;2.28;;;1.88;;
43327;SDS011;28923;45.412;10.852;2023-12-07T11:48:21;2.30;;;1.83;;
43327;SDS011;28923;45.412;10.852;2023-12-07T11:50:54;3.90;;;2.05;;
43327;SDS011;28923;45.412;10.852;2023-12-07T11:53:24;5.55;;;2.38;;
43327;SDS011;28923;45.412;10.852;2023-12-07T11:55:51;2.53;;;2.00;;
43327;SDS011;28923;45.412;10.852;2023-12-07T11:58:16;3.10;;;2.17;;
43327;SDS011;28923;45.412;10.852;2023-12-07T12:00:43;2.63;;;2.13;;
43327;SDS011;28923;45.412;10.852;2023-12-07T12:03:09;3.58;;;2.20;;
43327;SDS011;28923;45.412;10.852;2023-12-07T12:05:36;3.75;;;2.10;;
43327;SDS011;28923;45.412;10.852;2023-12-07T12:08:04;2.85;;;2.13;;
43327;SDS011;28923;45.412;10.852;2023-12-07T12:10:30;2.40;;;1.90;;
43327;SDS011;28923;45.412;10.852;2023-12-07T12:12:55;3.00;;;2.17;;
43327;SDS011;28923;45.412;10.852;2023-12-07T12:15:21;4.38;;;2.10;;
43327;SDS011;28923;45.412;10.852;2023-12-07T12:17:48;2.92;;;2.15;;
43327;SDS011;28923;45.412;10.852;2023-12-07T12:20:14;2.33;;;2.13;;
43327;SDS011;28923;45.412;10.852;2023-12-07T12:22:45;2.55;;;2.28;;
43327;SDS011;28923;45.412;10.852;2023-12-07T12:25:11;2.80;;;2.40;;
43327;SDS011;28923;45.412;10.852;2023-12-07T12:27:37;3.45;;;1.80;;
43327;SDS011;28923;45.412;10.852;2023-12-07T12:30:03;2.83;;;1.80;;
43327;SDS011;28923;45.412;10.852;2023-12-07T12:32:45;3.75;;;1.90;;
43327;SDS011;28923;45.412;10.852;2023-12-07T12:35:11;3.28;;;2.30;;
43327;SDS011;28923;45.412;10.852;2023-12-07T12:37:39;3.17;;;2.10;;
43327;SDS011;28923;45.412;10.852;2023-12-07T12:40:07;3.70;;;2.22;;
43327;SDS011;28923;45.412;10.852;2023-12-07T12:42:33;3.08;;;2.25;;
43327;SDS011;28923;45.412;10.852;2023-12-07T12:44:59;4.72;;;2.30;;
43327;SDS011;28923;45.412;10.852;2023-12-07T12:47:24;3.90;;;2.40;;
43327;SDS011;28923;45.412;10.852;2023-12-07T12:49:50;2.20;;;2.00;;
43327;SDS011;28923;45.412;10.852;2023-12-07T12:52:17;2.63;;;2.17;;
43327;SDS011;28923;45.412;10.852;2023-12-07T12:54:43;2.83;;;1.98;;
43327;SDS011;28923;45.412;10.852;2023-12-07T12:57:09;9.85;;;1.95;;
43327;SDS011;28923;45.412;10.852;2023-12-07T12:59:35;2.67;;;2.10;;
43327;SDS011;28923;45.412;10.852;2023-12-07T13:02:02;3.05;;;2.08;;
43327;SDS011;28923;45.412;10.852;2023-12-07T13:04:31;3.05;;;1.80;;
43327;SDS011;28923;45.412;10.852;2023-12-07T13:06:57;3.20;;;2.30;;
43327;SDS011;28923;45.412;10.852;2023-12-07T13:09:23;3.00;;;2.38;;
43327;SDS011;28923;45.412;10.852;2023-12-07T13:11:49;3.97;;;2.78;;
43327;SDS011;28923;45.412;10.852;2023-12-07T13:14:15;5.22;;;3.25;;
43327;SDS011;28923;45.412;10.852;2023-12-07T13:16:43;4.47;;;3.17;;
43327;SDS011;28923;45.412;10.852;2023-12-07T13:19:08;6.05;;;3.70;;
43327;SDS011;28923;45.412;10.852;2023-12-07T13:21:34;6.32;;;3.15;;
43327;SDS011;28923;45.412;10.852;2023-12-07T13:23:59;4.28;;;3.00;;
43327;SDS011;28923;45.412;10.852;2023-12-07T13:26:25;3.65;;;2.95;;
43327;SDS011;28923;45.412;10.852;2023-12-07T13:28:50;3.85;;;3.38;;
43327;SDS011;28923;45.412;10.852;2023-12-07T13:31:16;5.03;;;3.22;;
43327;SDS011;28923;45.412;10.852;2023-12-07T13:33:41;5.65;;;3.75;;
43327;SDS011;28923;45.412;10.852;2023-12-07T13:36:07;5.10;;;3.03;;
43327;SDS011;28923;45.412;10.852;2023-12-07T13:38:32;5.43;;;3.20;;
43327;SDS011;28923;45.412;10.852;2023-12-07T13:40:59;6.63;;;2.85;;
43327;SDS011;28923;45.412;10.852;2023-12-07T13:43:25;3.40;;;3.10;;
43327;SDS011;28923;45.412;10.852;2023-12-07T13:45:51;6.70;;;3.20;;
43327;SDS011;28923;45.412;10.852;2023-12-07T13:48:16;5.75;;;3.40;;
43327;SDS011;28923;45.412;10.852;2023-12-07T13:50:42;7.60;;;3.40;;
43327;SDS011;28923;45.412;10.852;2023-12-07T13:53:08;5.60;;;3.50;;
43327;SDS011;28923;45.412;10.852;2023-12-07T13:55:40;5.25;;;3.22;;
43327;SDS011;28923;45.412;10.852;2023-12-07T13:58:05;4.95;;;3.45;;
43327;SDS011;28923;45.412;10.852;2023-12-07T14:00:33;5.35;;;3.13;;
43327;SDS011;28923;45.412;10.852;2023-12-07T14:02:59;5.22;;;3.33;;
43327;SDS011;28923;45.412;10.852;2023-12-07T14:05:25;8.05;;;3.38;;
43327;SDS011;28923;45.412;10.852;2023-12-07T14:07:50;9.23;;;3.38;;
43327;SDS011;28923;45.412;10.852;2023-12-07T14:10:16;6.50;;;3.30;;
43327;SDS011;28923;45.412;10.852;2023-12-07T14:12:41;5.07;;;3.10;;
43327;SDS011;28923;45.412;10.852;2023-12-07T14:15:07;5.82;;;3.50;;
43327;SDS011;28923;45.412;10.852;2023-12-07T14:17:33;6.38;;;3.00;;
43327;SDS011;28923;45.412;10.852;2023-12-07T14:20:03;3.90;;;3.03;;
43327;SDS011;28923;45.412;10.852;2023-12-07T14:22:29;4.47;;;3.30;;
43327;SDS011;28923;45.412;10.852;2023-12-07T14:24:54;4.32;;;3.30;;
43327;SDS011;28923;45.412;10.852;2023-12-07T14:27:20;4.85;;;3.33;;
43327;SDS011;28923;45.412;10.852;2023-12-07T14:29:46;5.75;;;3.10;;
43327;SDS011;28923;45.412;10.852;2023-12-07T14:32:11;5.80;;;3.10;;
43327;SDS011;28923;45.412;10.852;2023-12-07T14:34:37;4.15;;;3.28;;
43327;SDS011;28923;45.412;10.852;2023-12-07T14:37:03;3.53;;;2.60;;
43327;SDS011;28923;45.412;10.852;2023-12-07T14:39:30;4.22;;;2.83;;
43327;SDS011;28923;45.412;10.852;2023-12-07T14:41:56;3.83;;;2.80;;
43327;SDS011;28923;45.412;10.852;2023-12-07T14:44:22;4.03;;;3.10;;
43327;SDS011;28923;45.412;10.852;2023-12-07T14:46:47;4.72;;;3.00;;
43327;SDS011;28923;45.412;10.852;2023-12-07T14:49:13;3.28;;;2.67;;
43327;SDS011;28923;45.412;10.852;2023-12-07T14:51:39;5.13;;;3.13;;
43327;SDS011;28923;45.412;10.852;2023-12-07T14:54:05;4.95;;;3.20;;
43327;SDS011;28923;45.412;10.852;2023-12-07T14:56:30;3.92;;;3.22;;
43327;SDS011;28923;45.412;10.852;2023-12-07T14:58:56;4.57;;;2.85;;
43327;SDS011;28923;45.412;10.852;2023-12-07T15:01:23;4.40;;;2.80;;
43327;SDS011;28923;45.412;10.852;2023-12-07T15:03:48;3.83;;;3.20;;
43327;SDS011;28923;45.412;10.852;2023-12-07T15:06:14;4.07;;;3.20;;
43327;SDS011;28923;45.412;10.852;2023-12-07T15:08:40;3.10;;;2.80;;
43327;SDS011;28923;45.412;10.852;2023-12-07T15:11:05;3.55;;;2.92;;
43327;SDS011;28923;45.412;10.852;2023-12-07T15:13:31;4.07;;;2.50;;
43327;SDS011;28923;45.412;10.852;2023-12-07T15:15:56;3.28;;;2.95;;
43327;SDS011;28923;45.412;10.852;2023-12-07T15:18:22;3.28;;;2.55;;
43327;SDS011;28923;45.412;10.852;2023-12-07T15:20:47;3.00;;;2.70;;
43327;SDS011;28923;45.412;10.852;2023-12-07T15:23:13;3.75;;;2.92;;
43327;SDS011;28923;45.412;10.852;2023-12-07T15:25:38;3.67;;;2.58;;
43327;SDS011;28923;45.412;10.852;2023-12-07T15:28:03;3.10;;;2.80;;
43327;SDS011;28923;45.412;10.852;2023-12-07T15:30:29;3.63;;;2.70;;
43327;SDS011;28923;45.412;10.852;2023-12-07T15:32:54;4.50;;;2.80;;
43327;SDS011;28923;45.412;10.852;2023-12-07T15:35:20;3.25;;;2.30;;
43327;SDS011;28923;45.412;10.852;2023-12-07T15:37:46;2.83;;;2.53;;
43327;SDS011;28923;45.412;10.852;2023-12-07T15:40:11;2.90;;;2.60;;
43327;SDS011;28923;45.412;10.852;2023-12-07T15:42:37;3.28;;;2.67;;
43327;SDS011;28923;45.412;10.852;2023-12-07T15:45:05;2.75;;;2.55;;
43327;SDS011;28923;45.412;10.852;2023-12-07T15:47:31;6.00;;;2.67;;
43327;SDS011;28923;45.412;10.852;2023-12-07T15:49:56;4.70;;;2.90;;
43327;SDS011;28923;45.412;10.852;2023-12-07T15:52:22;6.53;;;2.63;;
43327;SDS011;28923;45.412;10.852;2023-12-07T15:54:48;2.85;;;2.42;;
43327;SDS011;28923;45.412;10.852;2023-12-07T15:57:13;3.53;;;2.80;;
43327;SDS011;28923;45.412;10.852;2023-12-07T15:59:39;4.28;;;2.60;;
43327;SDS011;28923;45.412;10.852;2023-12-07T16:02:05;3.97;;;2.65;;
43327;SDS011;28923;45.412;10.852;2023-12-07T16:04:30;4.78;;;2.63;;
43327;SDS011;28923;45.412;10.852;2023-12-07T16:06:56;3.40;;;2.75;;
43327;SDS011;28923;45.412;10.852;2023-12-07T16:09:21;3.83;;;2.40;;
43327;SDS011;28923;45.412;10.852;2023-12-07T16:11:47;4.15;;;2.88;;
43327;SDS011;28923;45.412;10.852;2023-12-07T16:14:13;4.65;;;2.85;;
43327;SDS011;28923;45.412;10.852;2023-12-07T16:16:38;3.70;;;2.58;;
43327;SDS011;28923;45.412;10.852;2023-12-07T16:19:03;3.28;;;2.70;;
43327;SDS011;28923;45.412;10.852;2023-12-07T16:21:29;3.60;;;2.70;;
43327;SDS011;28923;45.412;10.852;2023-12-07T16:23:56;5.60;;;2.78;;
43327;SDS011;28923;45.412;10.852;2023-12-07T16:26:21;3.53;;;2.80;;
43327;SDS011;28923;45.412;10.852;2023-12-07T16:28:47;5.82;;;3.15;;
43327;SDS011;28923;45.412;10.852;2023-12-07T16:31:12;4.13;;;2.80;;
43327;SDS011;28923;45.412;10.852;2023-12-07T16:33:37;5.43;;;3.22;;
43327;SDS011;28923;45.412;10.852;2023-12-07T16:36:03;3.75;;;2.72;;
43327;SDS011;28923;45.412;10.852;2023-12-07T16:38:30;4.55;;;3.17;;
43327;SDS011;28923;45.412;10.852;2023-12-07T16:40:55;3.97;;;3.15;;
43327;SDS011;28923;45.412;10.852;2023-12-07T16:43:20;4.22;;;2.92;;
43327;SDS011;28923;45.412;10.852;2023-12-07T16:45:46;4.60;;;3.08;;
43327;SDS011;28923;45.412;10.852;2023-12-07T16:48:12;4.22;;;3.15;;
43327;SDS011;28923;45.412;10.852;2023-12-07T16:50:37;4.70;;;3.05;;
43327;SDS011;28923;45.412;10.852;2023-12-07T16:53:02;4.35;;;3.47;;
43327;SDS011;28923;45.412;10.852;2023-12-07T16:55:28;4.20;;;2.97;;
43327;SDS011;28923;45.412;10.852;2023-12-07T16:57:54;3.63;;;3.00;;
43327;SDS011;28923;45.412;10.852;2023-12-07T17:00:19;4.38;;;3.75;;
43327;SDS011;28923;45.412;10.852;2023-12-07T17:02:46;4.25;;;2.97;;
43327;SDS011;28923;45.412;10.852;2023-12-07T17:05:11;3.28;;;2.75;;
43327;SDS011;28923;45.412;10.852;2023-12-07T17:07:37;8.02;;;3.53;;
43327;SDS011;28923;45.412;10.852;2023-12-07T17:10:02;5.60;;;3.17;;
43327;SDS011;28923;45.412;10.852;2023-12-07T17:12:28;4.05;;;2.88;;
43327;SDS011;28923;45.412;10.852;2023-12-07T17:14:53;5.38;;;3.30;;
43327;SDS011;28923;45.412;10.852;2023-12-07T17:17:18;3.65;;;3.10;;
43327;SDS011;28923;45.412;10.852;2023-12-07T17:19:44;4.50;;;3.40;;
43327;SDS011;28923;45.412;10.852;2023-12-07T17:22:09;4.25;;;3.63;;
43327;SDS011;28923;45.412;10.852;2023-12-07T17:24:34;5.75;;;3.45;;
43327;SDS011;28923;45.412;10.852;2023-12-07T17:27:00;3.85;;;3.20;;
43327;SDS011;28923;45.412;10.852;2023-12-07T17:29:25;6.38;;;3.50;;
43327;SDS011;28923;45.412;10.852;2023-12-07T17:31:51;5.93;;;4.07;;
43327;SDS011;28923;45.412;10.852;2023-12-07T17:34:16;3.92;;;3.53;;
43327;SDS011;28923;45.412;10.852;2023-12-07T17:36:42;5.25;;;3.33;;
43327;SDS011;28923;45.412;10.852;2023-12-07T17:39:07;6.13;;;3.70;;
43327;SDS011;28923;45.412;10.852;2023-12-07T17:41:33;5.07;;;3.33;;
43327;SDS011;28923;45.412;10.852;2023-12-07T17:43:58;4.60;;;3.40;;
43327;SDS011;28923;45.412;10.852;2023-12-07T17:46:26;7.25;;;3.53;;
43327;SDS011;28923;45.412;10.852;2023-12-07T17:48:51;8.80;;;4.43;;
43327;SDS011;28923;45.412;10.852;2023-12-07T17:51:17;7.13;;;3.80;;
43327;SDS011;28923;45.412;10.852;2023-12-07T17:53:42;5.15;;;3.92;;
43327;SDS011;28923;45.412;10.852;2023-12-07T17:56:07;10.15;;;4.03;;
43327;SDS011;28923;45.412;10.852;2023-12-07T17:58:33;9.18;;;4.22;;
43327;SDS011;28923;45.412;10.852;2023-12-07T18:00:58;8.38;;;4.07;;
43327;SDS011;28923;45.412;10.852;2023-12-07T18:03:24;7.85;;;4.13;;
43327;SDS011;28923;45.412;10.852;2023-12-07T18:05:50;7.72;;;4.50;;
43327;SDS011;28923;45.412;10.852;2023-12-07T18:08:15;7.10;;;4.07;;
43327;SDS011;28923;45.412;10.852;2023-12-07T18:10:41;11.05;;;4.10;;
43327;SDS011;28923;45.412;10.852;2023-12-07T18:13:06;7.65;;;3.85;;
43327;SDS011;28923;45.412;10.852;2023-12-07T18:15:34;6.45;;;3.60;;
43327;SDS011;28923;45.412;10.852;2023-12-07T18:17:59;6.18;;;3.88;;
43327;SDS011;28923;45.412;10.852;2023-12-07T18:20:25;6.82;;;3.92;;
43327;SDS011;28923;45.412;10.852;2023-12-07T18:22:50;7.18;;;4.55;;
43327;SDS011;28923;45.412;10.852;2023-12-07T18:25:15;6.05;;;4.22;;
43327;SDS011;28923;45.412;10.852;2023-12-07T18:27:41;4.80;;;3.78;;
43327;SDS011;28923;45.412;10.852;2023-12-07T18:30:08;8.63;;;3.95;;
43327;SDS011;28923;45.412;10.852;2023-12-07T18:32:33;6.50;;;4.43;;
43327;SDS011;28923;45.412;10.852;2023-12-07T18:34:59;5.15;;;3.70;;
43327;SDS011;28923;45.412;10.852;2023-12-07T18:37:25;10.13;;;4.10;;
43327;SDS011;28923;45.412;10.852;2023-12-07T18:39:50;7.28;;;3.83;;
43327;SDS011;28923;45.412;10.852;2023-12-07T18:42:16;6.03;;;3.83;;
43327;SDS011;28923;45.412;10.852;2023-12-07T18:44:42;3.95;;;3.40;;
43327;SDS011;28923;45.412;10.852;2023-12-07T18:47:07;5.70;;;4.03;;
43327;SDS011;28923;45.412;10.852;2023-12-07T18:49:33;5.32;;;3.92;;
43327;SDS011;28923;45.412;10.852;2023-12-07T18:51:59;5.40;;;3.83;;
43327;SDS011;28923;45.412;10.852;2023-12-07T18:54:28;8.45;;;3.60;;
43327;SDS011;28923;45.412;10.852;2023-12-07T18:56:59;4.28;;;3.38;;
43327;SDS011;28923;45.412;10.852;2023-12-07T18:59:26;4.97;;;3.85;;
43327;SDS011;28923;45.412;10.852;2023-12-07T19:01:51;9.90;;;3.85;;
43327;SDS011;28923;45.412;10.852;2023-12-07T19:04:17;4.53;;;3.63;;
43327;SDS011;28923;45.412;10.852;2023-12-07T19:06:42;5.82;;;3.67;;
43327;SDS011;28923;45.412;10.852;2023-12-07T19:09:07;4.00;;;3.60;;
43327;SDS011;28923;45.412;10.852;2023-12-07T19:11:33;5.00;;;3.40;;
43327;SDS011;28923;45.412;10.852;2023-12-07T19:13:59;4.57;;;3.70;;
43327;SDS011;28923;45.412;10.852;2023-12-07T19:16:24;4.60;;;4.10;;
43327;SDS011;28923;45.412;10.852;2023-12-07T19:18:50;6.55;;;3.50;;
43327;SDS011;28923;45.412;10.852;2023-12-07T19:21:15;4.65;;;3.97;;
43327;SDS011;28923;45.412;10.852;2023-12-07T19:23:40;4.93;;;3.70;;
43327;SDS011;28923;45.412;10.852;2023-12-07T19:26:09;4.28;;;3.70;;
43327;SDS011;28923;45.412;10.852;2023-12-07T19:28:38;5.60;;;3.88;;
43327;SDS011;28923;45.412;10.852;2023-12-07T19:31:04;4.75;;;3.47;;
43327;SDS011;28923;45.412;10.852;2023-12-07T19:33:29;4.72;;;3.80;;
43327;SDS011;28923;45.412;10.852;2023-12-07T19:35:55;7.93;;;4.18;;
43327;SDS011;28923;45.412;10.852;2023-12-07T19:38:20;7.18;;;4.10;;
43327;SDS011;28923;45.412;10.852;2023-12-07T19:40:45;10.32;;;4.22;;